Whale Watcher II — WDB8211 — position and weather

sailwx.info

Track history (hours):
 
Tides and Currents Weather Stations Pressure Air Temp Water Temp Dewpoint Dewpoint Depression Visibility Wind Speed Wind Dir Waves Ship Positions

Whale Watcher II

Owner: Ronald L. Robbins LLC, Cape May, NJ. More information available from US FCC via Universal Licensing System and Coast Guard Vessel Documentation Center.

Last reported at 2015-Apr-18 18:29 UTC. Time now 2015-Apr-19 08:01 UTC.
Position N 29°57' W 090°01'.

Length 22 m.

Type: Towing. MMSI: 367011790.

Date/timePositionNaut miles runAvg speedWind from/ knotsBaromVisibWave heightAir tempDewpointWater temp
2015-Apr-18 18:29N 29°57' W 090°01'3 2.8
2015-Apr-18 17:30N 29°55' W 090°04'0 0.1
2015-Apr-18 16:32N 29°55' W 090°04'0 0.1
2015-Apr-18 15:32N 29°55' W 090°04'0 0.0
2015-Apr-18 14:25N 29°55' W 090°04'0 0.0
2015-Apr-18 13:28N 29°55' W 090°04'0 0.0
2015-Apr-17 21:32N 29°55' W 090°04'0 0.0
2015-Apr-17 20:31N 29°55' W 090°04'0 0.0
2015-Apr-17 19:31N 29°55' W 090°04'0 0.0
2015-Apr-17 18:33N 29°55' W 090°04'0 0.0
2015-Apr-17 17:29N 29°55' W 090°04'0 0.0
2015-Apr-17 16:29N 29°55' W 090°04'0 0.0
2015-Apr-17 15:30N 29°55' W 090°04'0 0.0
2015-Apr-17 14:33N 29°55' W 090°04'0 0.0
2015-Apr-17 13:33N 29°55' W 090°04'0 0.1
2015-Apr-17 12:33N 29°55' W 090°04'2 2.3
2015-Apr-17 11:32N 29°57' W 090°02'6 2.5
2015-Apr-17 09:09N 29°53' W 089°58'7 0.2
2015-Apr-16 04:29N 29°58' W 090°03'2 2.3
2015-Apr-16 03:29N 29°55' W 090°04'0 0.0
2015-Apr-16 02:23N 29°55' W 090°04'0 0.0
2015-Apr-16 01:27N 29°55' W 090°04'0 0.0
2015-Apr-16 00:17N 29°55' W 090°04'0 0.0
2015-Apr-15 23:30N 29°55' W 090°04'0 0.0
2015-Apr-15 22:30N 29°55' W 090°04'0 0.0
2015-Apr-15 21:27N 29°55' W 090°04'0 0.0
2015-Apr-15 20:32N 29°55' W 090°04'0 0.0
2015-Apr-15 19:33N 29°55' W 090°04'0 0.4
2015-Apr-15 18:32N 29°56' W 090°03'2 2.4
2015-Apr-15 17:32N 29°57' W 090°01'0 0.0
2015-Apr-14 14:15N 29°57' W 090°00'1 0.8
2015-Apr-14 12:31N 29°57' W 090°02'0 0.0
2015-Apr-14 11:25N 29°57' W 090°02'0 0.0
2015-Apr-14 10:24N 29°57' W 090°02'2 2.0
2015-Apr-14 09:31N 29°56' W 090°03'0 0.3
2015-Apr-14 08:31N 29°56' W 090°03'0 0.0
2015-Apr-14 07:33N 29°56' W 090°03'0 0.0
2015-Apr-14 06:27N 29°56' W 090°03'0 0.0
2015-Apr-14 05:32N 29°56' W 090°03'0 0.1
2015-Apr-14 04:30N 29°56' W 090°03'0 0.1
2015-Apr-14 03:33N 29°56' W 090°04'0 0.2
2015-Apr-14 02:30N 29°56' W 090°03'0 0.2
2015-Apr-14 01:31N 29°56' W 090°04'3 0.3
2015-Apr-13 17:27N 29°57' W 090°01'3 3.0
2015-Apr-13 16:33N 29°56' W 090°03'0 0.0
2015-Apr-13 15:22N 29°56' W 090°03'0 0.1
2015-Apr-13 14:30N 29°56' W 090°03'0 0.1
2015-Apr-13 13:27N 29°56' W 090°03'0 0.0
2015-Apr-13 12:25N 29°56' W 090°04'0 0.0
2015-Apr-13 11:33N 29°56' W 090°03'0 0.0
2015-Apr-13 10:29N 29°56' W 090°03'0 0.0
2015-Apr-13 09:23N 29°56' W 090°03'0 0.0
2015-Apr-13 08:32N 29°56' W 090°03'0 0.0
2015-Apr-13 07:27N 29°56' W 090°03'0 0.0
2015-Apr-13 06:33N 29°56' W 090°03'0 0.0
2015-Apr-13 05:33N 29°56' W 090°03'0 0.1
2015-Apr-13 04:32N 29°56' W 090°04'0 0.1
2015-Apr-13 03:20N 29°56' W 090°03'0 0.0
2015-Apr-13 02:20N 29°56' W 090°04'2 2.8
2015-Apr-13 01:33N 29°57' W 090°01'4 0.2
2015-Apr-12 01:16N 29°55' W 089°57'5 5.9
2015-Apr-12 00:20N 29°56' W 090°04'0 0.4
2015-Apr-11 23:30N 29°56' W 090°03'0 0.0
2015-Apr-11 22:10N 29°56' W 090°03'0 0.0
2015-Apr-11 21:30N 29°56' W 090°03'0 0.0
2015-Apr-11 20:20N 29°56' W 090°03'0 0.0
2015-Apr-11 19:18N 29°56' W 090°03'0 0.1
2015-Apr-11 18:30N 29°56' W 090°03'3 3.0
2015-Apr-11 17:25N 29°56' W 089°60'4 2.2
2015-Apr-11 15:26N 29°53' W 089°57'3 0.2
2015-Apr-10 21:28N 29°55' W 089°55'7 7.9
2015-Apr-10 20:33N 29°55' W 090°04'0 0.4
2015-Apr-10 19:33N 29°56' W 090°03'0 0.2
2015-Apr-10 18:33N 29°56' W 090°03'0 0.1
2015-Apr-10 17:33N 29°56' W 090°03'2 1.5
2015-Apr-10 16:30N 29°57' W 090°03'3 3.1
2015-Apr-10 15:32N 29°56' W 090°00'9 0.4
2015-Apr-09 14:29N 29°57' W 090°10'4 3.5
2015-Apr-09 13:29N 29°55' W 090°07'3 3.0
2015-Apr-09 12:27N 29°56' W 090°04'0 0.0
2015-Apr-09 11:31N 29°56' W 090°04'1 0.5
2015-Apr-09 10:28N 29°56' W 090°03'3 2.9
2015-Apr-09 09:33N 29°56' W 090°00'  
Track history (hours):
 
Tides and Currents Weather Stations Pressure Air Temp Water Temp Dewpoint Dewpoint Depression Visibility Wind Speed Wind Dir Waves Ship Positions

Whale Watcher II

Owner: Ronald L. Robbins LLC, Cape May, NJ. More information available from US FCC via Universal Licensing System and Coast Guard Vessel Documentation Center.

Last reported at 2015-Apr-18 18:29 UTC. Time now 2015-Apr-19 08:01 UTC.
Position N 29°57' W 090°01'.

Length 22 m.

Type: Towing. MMSI: 367011790.

Date/timePositionNaut miles runAvg speedWind from/ knotsBaromVisibWave heightAir tempDewpointWater temp
2015-Apr-18 18:29N 29°57' W 090°01'3 2.8
2015-Apr-18 17:30N 29°55' W 090°04'0 0.1
2015-Apr-18 16:32N 29°55' W 090°04'0 0.1
2015-Apr-18 15:32N 29°55' W 090°04'0 0.0
2015-Apr-18 14:25N 29°55' W 090°04'0 0.0
2015-Apr-18 13:28N 29°55' W 090°04'0 0.0
2015-Apr-17 21:32N 29°55' W 090°04'0 0.0
2015-Apr-17 20:31N 29°55' W 090°04'0 0.0
2015-Apr-17 19:31N 29°55' W 090°04'0 0.0
2015-Apr-17 18:33N 29°55' W 090°04'0 0.0
2015-Apr-17 17:29N 29°55' W 090°04'0 0.0
2015-Apr-17 16:29N 29°55' W 090°04'0 0.0
2015-Apr-17 15:30N 29°55' W 090°04'0 0.0
2015-Apr-17 14:33N 29°55' W 090°04'0 0.0
2015-Apr-17 13:33N 29°55' W 090°04'0 0.1
2015-Apr-17 12:33N 29°55' W 090°04'2 2.3
2015-Apr-17 11:32N 29°57' W 090°02'6 2.5
2015-Apr-17 09:09N 29°53' W 089°58'7 0.2
2015-Apr-16 04:29N 29°58' W 090°03'2 2.3
2015-Apr-16 03:29N 29°55' W 090°04'0 0.0
2015-Apr-16 02:23N 29°55' W 090°04'0 0.0
2015-Apr-16 01:27N 29°55' W 090°04'0 0.0
2015-Apr-16 00:17N 29°55' W 090°04'0 0.0
2015-Apr-15 23:30N 29°55' W 090°04'0 0.0
2015-Apr-15 22:30N 29°55' W 090°04'0 0.0
2015-Apr-15 21:27N 29°55' W 090°04'0 0.0
2015-Apr-15 20:32N 29°55' W 090°04'0 0.0
2015-Apr-15 19:33N 29°55' W 090°04'0 0.4
2015-Apr-15 18:32N 29°56' W 090°03'2 2.4
2015-Apr-15 17:32N 29°57' W 090°01'0 0.0
2015-Apr-14 14:15N 29°57' W 090°00'1 0.8
2015-Apr-14 12:31N 29°57' W 090°02'0 0.0
2015-Apr-14 11:25N 29°57' W 090°02'0 0.0
2015-Apr-14 10:24N 29°57' W 090°02'2 2.0
2015-Apr-14 09:31N 29°56' W 090°03'0 0.3
2015-Apr-14 08:31N 29°56' W 090°03'0 0.0
2015-Apr-14 07:33N 29°56' W 090°03'0 0.0
2015-Apr-14 06:27N 29°56' W 090°03'0 0.0
2015-Apr-14 05:32N 29°56' W 090°03'0 0.1
2015-Apr-14 04:30N 29°56' W 090°03'0 0.1
2015-Apr-14 03:33N 29°56' W 090°04'0 0.2
2015-Apr-14 02:30N 29°56' W 090°03'0 0.2
2015-Apr-14 01:31N 29°56' W 090°04'3 0.3
2015-Apr-13 17:27N 29°57' W 090°01'3 3.0
2015-Apr-13 16:33N 29°56' W 090°03'0 0.0
2015-Apr-13 15:22N 29°56' W 090°03'0 0.1
2015-Apr-13 14:30N 29°56' W 090°03'0 0.1
2015-Apr-13 13:27N 29°56' W 090°03'0 0.0
2015-Apr-13 12:25N 29°56' W 090°04'0 0.0
2015-Apr-13 11:33N 29°56' W 090°03'0 0.0
2015-Apr-13 10:29N 29°56' W 090°03'0 0.0
2015-Apr-13 09:23N 29°56' W 090°03'0 0.0
2015-Apr-13 08:32N 29°56' W 090°03'0 0.0
2015-Apr-13 07:27N 29°56' W 090°03'0 0.0
2015-Apr-13 06:33N 29°56' W 090°03'0 0.0
2015-Apr-13 05:33N 29°56' W 090°03'0 0.1
2015-Apr-13 04:32N 29°56' W 090°04'0 0.1
2015-Apr-13 03:20N 29°56' W 090°03'0 0.0
2015-Apr-13 02:20N 29°56' W 090°04'2 2.8
2015-Apr-13 01:33N 29°57' W 090°01'4 0.2
2015-Apr-12 01:16N 29°55' W 089°57'5 5.9
2015-Apr-12 00:20N 29°56' W 090°04'0 0.4
2015-Apr-11 23:30N 29°56' W 090°03'0 0.0
2015-Apr-11 22:10N 29°56' W 090°03'0 0.0
2015-Apr-11 21:30N 29°56' W 090°03'0 0.0
2015-Apr-11 20:20N 29°56' W 090°03'0 0.0
2015-Apr-11 19:18N 29°56' W 090°03'0 0.1
2015-Apr-11 18:30N 29°56' W 090°03'3 3.0
2015-Apr-11 17:25N 29°56' W 089°60'4 2.2
2015-Apr-11 15:26N 29°53' W 089°57'3 0.2
2015-Apr-10 21:28N 29°55' W 089°55'7 7.9
2015-Apr-10 20:33N 29°55' W 090°04'0 0.4
2015-Apr-10 19:33N 29°56' W 090°03'0 0.2
2015-Apr-10 18:33N 29°56' W 090°03'0 0.1
2015-Apr-10 17:33N 29°56' W 090°03'2 1.5
2015-Apr-10 16:30N 29°57' W 090°03'3 3.1
2015-Apr-10 15:32N 29°56' W 090°00'9 0.4
2015-Apr-09 14:29N 29°57' W 090°10'4 3.5
2015-Apr-09 13:29N 29°55' W 090°07'3 3.0
2015-Apr-09 12:27N 29°56' W 090°04'0 0.0
2015-Apr-09 11:31N 29°56' W 090°04'1 0.5
2015-Apr-09 10:28N 29°56' W 090°03'3 2.9
2015-Apr-09 09:33N 29°56' W 090°00'  

Dump ship's entire track history